AUA26K LOWW-LOWS
Flight info
| Callsign | AUA26K |
|---|---|
| Flight time | 0h 34m |
| Altitude | 16000 |
| Route | SOVIL DCT SITNI DCT BAGSI DCT MATIG MATIG2R |
| Aircraft | A359/H-SDE2E3GHIJ3J4J5LM1ORWXY/LB1D1 |
Departure
| Time | 2026-04-21 07:31 |
|---|---|
| Airport | Vienna International Airport (LOWW) |
Arrival
| Time | 2026-04-21 08:05 |
|---|---|
| Airport | Salzburg Airport (LOWS) |
| Time | Latitude | Longitude | Altitude | Speed | Heading |
|---|---|---|---|---|---|
| 2026-04-21 06:52 | 48.11856 | 16.55990 | 628 ft | 0 kts | 124° |
| 2026-04-21 07:16 | 48.11857 | 16.55989 | 630 ft | 2 kts | 124° |
| 2026-04-21 07:16 | 48.11861 | 16.55981 | 633 ft | 4 kts | 141° |
| 2026-04-21 07:17 | 48.11876 | 16.55966 | 624 ft | 4 kts | 183° |
| 2026-04-21 07:17 | 48.11891 | 16.55960 | 630 ft | 4 kts | 148° |
| 2026-04-21 07:17 | 48.11914 | 16.55939 | 630 ft | 4 kts | 154° |
| 2026-04-21 07:17 | 48.11937 | 16.55931 | 630 ft | 3 kts | 201° |
| 2026-04-21 07:18 | 48.11944 | 16.55935 | 630 ft | 0 kts | 204° |
| 2026-04-21 07:20 | 48.11930 | 16.55925 | 630 ft | 8 kts | 204° |
| 2026-04-21 07:21 | 48.11864 | 16.55878 | 630 ft | 13 kts | 205° |
| 2026-04-21 07:21 | 48.11770 | 16.55811 | 630 ft | 17 kts | 205° |
| 2026-04-21 07:21 | 48.11670 | 16.55864 | 630 ft | 18 kts | 122° |
| 2026-04-21 07:21 | 48.11610 | 16.56049 | 627 ft | 22 kts | 115° |
| 2026-04-21 07:22 | 48.11563 | 16.56190 | 626 ft | 24 kts | 116° |
| 2026-04-21 07:22 | 48.11485 | 16.56428 | 627 ft | 25 kts | 117° |
| 2026-04-21 07:22 | 48.11439 | 16.56570 | 627 ft | 14 kts | 116° |
| 2026-04-21 07:22 | 48.11389 | 16.56724 | 623 ft | 18 kts | 116° |
| 2026-04-21 07:23 | 48.11327 | 16.56914 | 627 ft | 22 kts | 116° |
| 2026-04-21 07:23 | 48.11255 | 16.57135 | 630 ft | 25 kts | 117° |
| 2026-04-21 07:23 | 48.11182 | 16.57357 | 627 ft | 24 kts | 116° |
| 2026-04-21 07:23 | 48.11105 | 16.57594 | 626 ft | 27 kts | 116° |
| 2026-04-21 07:24 | 48.10989 | 16.57814 | 627 ft | 29 kts | 158° |
| 2026-04-21 07:24 | 48.10789 | 16.57902 | 627 ft | 24 kts | 164° |
| 2026-04-21 07:24 | 48.10635 | 16.57966 | 628 ft | 25 kts | 164° |
| 2026-04-21 07:24 | 48.10458 | 16.58040 | 625 ft | 28 kts | 164° |
| 2026-04-21 07:25 | 48.10258 | 16.58124 | 624 ft | 31 kts | 164° |
| 2026-04-21 07:25 | 48.10066 | 16.58207 | 627 ft | 23 kts | 164° |
| 2026-04-21 07:25 | 48.09900 | 16.58279 | 630 ft | 27 kts | 163° |
| 2026-04-21 07:25 | 48.09782 | 16.58329 | 628 ft | 14 kts | 164° |
| 2026-04-21 07:26 | 48.09672 | 16.58375 | 628 ft | 19 kts | 164° |
| 2026-04-21 07:26 | 48.09533 | 16.58433 | 627 ft | 23 kts | 164° |
| 2026-04-21 07:26 | 48.09368 | 16.58503 | 629 ft | 26 kts | 164° |
| 2026-04-21 07:26 | 48.09180 | 16.58581 | 628 ft | 29 kts | 164° |
| 2026-04-21 07:27 | 48.09132 | 16.58602 | 628 ft | 1 kts | 164° |
| 2026-04-21 07:27 | 48.09076 | 16.58626 | 628 ft | 14 kts | 164° |
| 2026-04-21 07:27 | 48.08969 | 16.58671 | 620 ft | 18 kts | 164° |
| 2026-04-21 07:27 | 48.08847 | 16.58739 | 630 ft | 20 kts | 145° |
| 2026-04-21 07:28 | 48.08793 | 16.58928 | 626 ft | 21 kts | 81° |
| 2026-04-21 07:28 | 48.08886 | 16.59091 | 627 ft | 22 kts | 20° |
| 2026-04-21 07:28 | 48.08965 | 16.59090 | 624 ft | 0 kts | 345° |
| 2026-04-21 07:30 | 48.08971 | 16.59088 | 628 ft | 8 kts | 345° |
| 2026-04-21 07:30 | 48.09275 | 16.58960 | 628 ft | 85 kts | 344° |
| 2026-04-21 07:30 | 48.10079 | 16.58617 | 627 ft | 153 kts | 344° |
| 2026-04-21 07:30 | 48.11176 | 16.58107 | 1178 ft | 170 kts | 340° |
| 2026-04-21 07:31 | 48.12109 | 16.57082 | 2086 ft | 175 kts | 305° |
| 2026-04-21 07:31 | 48.12279 | 16.55211 | 2552 ft | 200 kts | 260° |
| 2026-04-21 07:31 | 48.11434 | 16.53470 | 3173 ft | 215 kts | 224° |
| 2026-04-21 07:31 | 48.10303 | 16.52002 | 3971 ft | 215 kts | 230° |
| 2026-04-21 07:32 | 48.09313 | 16.50353 | 4808 ft | 213 kts | 237° |
| 2026-04-21 07:32 | 48.08448 | 16.48554 | 5651 ft | 212 kts | 242° |
| 2026-04-21 07:32 | 48.07523 | 16.46807 | 6453 ft | 220 kts | 230° |
| 2026-04-21 07:32 | 48.06330 | 16.45199 | 6888 ft | 244 kts | 225° |
| 2026-04-21 07:33 | 48.04967 | 16.43486 | 7237 ft | 267 kts | 224° |
| 2026-04-21 07:33 | 48.03541 | 16.41684 | 7866 ft | 275 kts | 224° |
| 2026-04-21 07:33 | 48.02051 | 16.39780 | 8650 ft | 280 kts | 224° |
| 2026-04-21 07:33 | 48.00566 | 16.37865 | 9412 ft | 286 kts | 224° |
| 2026-04-21 07:34 | 47.99050 | 16.35901 | 10172 ft | 291 kts | 224° |
| 2026-04-21 07:34 | 47.97578 | 16.33719 | 10541 ft | 307 kts | 234° |
| 2026-04-21 07:34 | 47.96576 | 16.30849 | 10821 ft | 320 kts | 257° |
| 2026-04-21 07:34 | 47.96393 | 16.27508 | 11149 ft | 330 kts | 278° |
| 2026-04-21 07:35 | 47.96689 | 16.24131 | 11665 ft | 336 kts | 281° |
| 2026-04-21 07:35 | 47.97046 | 16.20654 | 12263 ft | 342 kts | 281° |
| 2026-04-21 07:35 | 47.97398 | 16.17115 | 12868 ft | 347 kts | 281° |
| 2026-04-21 07:35 | 47.97745 | 16.13532 | 13488 ft | 352 kts | 280° |
| 2026-04-21 07:36 | 47.98082 | 16.09985 | 14078 ft | 355 kts | 279° |
| 2026-04-21 07:36 | 47.98434 | 16.06236 | 14661 ft | 358 kts | 280° |
| 2026-04-21 07:36 | 47.98779 | 16.02538 | 15219 ft | 361 kts | 280° |
| 2026-04-21 07:36 | 47.99125 | 15.98806 | 15781 ft | 364 kts | 280° |
| 2026-04-21 07:37 | 47.99472 | 15.95056 | 16074 ft | 366 kts | 279° |
| 2026-04-21 07:37 | 47.99830 | 15.91168 | 16111 ft | 390 kts | 280° |
| 2026-04-21 07:37 | 48.00203 | 15.87104 | 16102 ft | 399 kts | 279° |
| 2026-04-21 07:37 | 48.00577 | 15.82978 | 16111 ft | 401 kts | 279° |
| 2026-04-21 07:38 | 48.00949 | 15.78847 | 16119 ft | 401 kts | 279° |
| 2026-04-21 07:38 | 48.01320 | 15.74729 | 16116 ft | 401 kts | 279° |
| 2026-04-21 07:38 | 48.01692 | 15.70594 | 16128 ft | 401 kts | 279° |
| 2026-04-21 07:38 | 48.02063 | 15.66474 | 16131 ft | 401 kts | 279° |
| 2026-04-21 07:39 | 48.02433 | 15.62345 | 16123 ft | 401 kts | 279° |
| 2026-04-21 07:39 | 48.02800 | 15.58212 | 16117 ft | 401 kts | 279° |
| 2026-04-21 07:39 | 48.03164 | 15.54082 | 16118 ft | 401 kts | 279° |
| 2026-04-21 07:39 | 48.03527 | 15.49948 | 16119 ft | 401 kts | 279° |
| 2026-04-21 07:40 | 48.03898 | 15.45826 | 16119 ft | 400 kts | 279° |
| 2026-04-21 07:40 | 48.04269 | 15.41710 | 16118 ft | 400 kts | 279° |
| 2026-04-21 07:40 | 48.04605 | 15.37581 | 16118 ft | 400 kts | 277° |
| 2026-04-21 07:40 | 48.04793 | 15.33432 | 16118 ft | 400 kts | 275° |
| 2026-04-21 07:41 | 48.04883 | 15.29291 | 16123 ft | 399 kts | 274° |
| 2026-04-21 07:41 | 48.04929 | 15.25149 | 16118 ft | 398 kts | 273° |
| 2026-04-21 07:41 | 48.04964 | 15.21010 | 16136 ft | 398 kts | 273° |
| 2026-04-21 07:41 | 48.05001 | 15.16881 | 16136 ft | 398 kts | 272° |
| 2026-04-21 07:42 | 48.05044 | 15.12738 | 16126 ft | 399 kts | 273° |
| 2026-04-21 07:42 | 48.05093 | 15.08594 | 16134 ft | 398 kts | 273° |
| 2026-04-21 07:42 | 48.05147 | 15.04451 | 16112 ft | 398 kts | 274° |
| 2026-04-21 07:42 | 48.05205 | 15.00321 | 16129 ft | 399 kts | 273° |
| 2026-04-21 07:43 | 48.05263 | 14.96169 | 16129 ft | 399 kts | 273° |
| 2026-04-21 07:43 | 48.05319 | 14.92035 | 16132 ft | 399 kts | 273° |
| 2026-04-21 07:43 | 48.05373 | 14.87882 | 16133 ft | 399 kts | 273° |
| 2026-04-21 07:43 | 48.05425 | 14.83725 | 16133 ft | 399 kts | 273° |
| 2026-04-21 07:44 | 48.05476 | 14.79578 | 16133 ft | 399 kts | 272° |
| 2026-04-21 07:44 | 48.05514 | 14.75484 | 16132 ft | 400 kts | 272° |
| 2026-04-21 07:44 | 48.05544 | 14.71333 | 16120 ft | 400 kts | 272° |
| 2026-04-21 07:44 | 48.05571 | 14.67180 | 16132 ft | 400 kts | 272° |
| 2026-04-21 07:45 | 48.05597 | 14.63025 | 16130 ft | 400 kts | 272° |
| 2026-04-21 07:45 | 48.05626 | 14.58814 | 16128 ft | 400 kts | 272° |
| 2026-04-21 07:45 | 48.05652 | 14.54716 | 16129 ft | 400 kts | 272° |
| 2026-04-21 07:45 | 48.05677 | 14.50506 | 16131 ft | 400 kts | 272° |
| 2026-04-21 07:46 | 48.05700 | 14.46413 | 16125 ft | 400 kts | 272° |
| 2026-04-21 07:46 | 48.05723 | 14.42262 | 16127 ft | 400 kts | 272° |
| 2026-04-21 07:46 | 48.05744 | 14.38099 | 16129 ft | 400 kts | 272° |
| 2026-04-21 07:46 | 48.05764 | 14.33949 | 16128 ft | 400 kts | 272° |
| 2026-04-21 07:47 | 48.05783 | 14.29789 | 16130 ft | 400 kts | 272° |
| 2026-04-21 07:47 | 48.05803 | 14.25647 | 16128 ft | 400 kts | 272° |
| 2026-04-21 07:47 | 48.05818 | 14.21494 | 15824 ft | 398 kts | 272° |
| 2026-04-21 07:47 | 48.05831 | 14.17365 | 15102 ft | 394 kts | 272° |
| 2026-04-21 07:48 | 48.05842 | 14.13308 | 14499 ft | 387 kts | 271° |
| 2026-04-21 07:48 | 48.05851 | 14.09325 | 13812 ft | 381 kts | 271° |
| 2026-04-21 07:48 | 48.05860 | 14.05381 | 13033 ft | 377 kts | 271° |
| 2026-04-21 07:48 | 48.05868 | 14.01493 | 12273 ft | 372 kts | 271° |
| 2026-04-21 07:49 | 48.05874 | 13.97650 | 11519 ft | 368 kts | 271° |
| 2026-04-21 07:49 | 48.05879 | 13.93887 | 11144 ft | 354 kts | 271° |
| 2026-04-21 07:49 | 48.05883 | 13.90287 | 10883 ft | 339 kts | 271° |
| 2026-04-21 07:49 | 48.05885 | 13.86838 | 10644 ft | 324 kts | 271° |
| 2026-04-21 07:50 | 48.05885 | 13.83549 | 10429 ft | 310 kts | 271° |
| 2026-04-21 07:50 | 48.05886 | 13.80395 | 10229 ft | 297 kts | 271° |
| 2026-04-21 07:50 | 48.05886 | 13.77374 | 10036 ft | 285 kts | 272° |
| 2026-04-21 07:50 | 48.05885 | 13.74464 | 9716 ft | 277 kts | 272° |
| 2026-04-21 07:51 | 48.05885 | 13.71603 | 9271 ft | 274 kts | 271° |
| 2026-04-21 07:51 | 48.05882 | 13.68765 | 8820 ft | 272 kts | 271° |
| 2026-04-21 07:51 | 48.05879 | 13.65957 | 8404 ft | 269 kts | 271° |
| 2026-04-21 07:51 | 48.05875 | 13.63185 | 7980 ft | 267 kts | 271° |
| 2026-04-21 07:52 | 48.05871 | 13.60415 | 7555 ft | 265 kts | 271° |
| 2026-04-21 07:52 | 48.05866 | 13.57675 | 7149 ft | 262 kts | 271° |
| 2026-04-21 07:52 | 48.05852 | 13.54959 | 6748 ft | 260 kts | 269° |
| 2026-04-21 07:52 | 48.05708 | 13.52272 | 6310 ft | 259 kts | 265° |
| 2026-04-21 07:53 | 48.05491 | 13.49600 | 5867 ft | 258 kts | 264° |
| 2026-04-21 07:53 | 48.05266 | 13.46947 | 5436 ft | 257 kts | 264° |
| 2026-04-21 07:53 | 48.05043 | 13.44316 | 5089 ft | 254 kts | 264° |
| 2026-04-21 07:53 | 48.04821 | 13.41694 | 5011 ft | 255 kts | 264° |
| 2026-04-21 07:54 | 48.04598 | 13.39063 | 4996 ft | 256 kts | 264° |
| 2026-04-21 07:54 | 48.04374 | 13.36425 | 4990 ft | 255 kts | 264° |
| 2026-04-21 07:54 | 48.04152 | 13.33796 | 4986 ft | 256 kts | 264° |
| 2026-04-21 07:54 | 48.03930 | 13.31164 | 4996 ft | 255 kts | 264° |
| 2026-04-21 07:55 | 48.03707 | 13.28529 | 4987 ft | 255 kts | 263° |
| 2026-04-21 07:55 | 48.03481 | 13.25899 | 4996 ft | 256 kts | 264° |
| 2026-04-21 07:55 | 48.03255 | 13.23261 | 4993 ft | 256 kts | 264° |
| 2026-04-21 07:55 | 48.03029 | 13.20618 | 4989 ft | 253 kts | 264° |
| 2026-04-21 07:56 | 48.02811 | 13.18105 | 4998 ft | 236 kts | 264° |
| 2026-04-21 07:56 | 48.02604 | 13.15735 | 4906 ft | 225 kts | 264° |
| 2026-04-21 07:56 | 48.02408 | 13.13469 | 4782 ft | 215 kts | 264° |
| 2026-04-21 07:56 | 48.02220 | 13.11314 | 4743 ft | 203 kts | 264° |
| 2026-04-21 07:57 | 48.02045 | 13.09284 | 4588 ft | 194 kts | 264° |
| 2026-04-21 07:57 | 48.01868 | 13.07303 | 4285 ft | 191 kts | 264° |
| 2026-04-21 07:57 | 48.01694 | 13.05347 | 4042 ft | 191 kts | 263° |
| 2026-04-21 07:57 | 48.01518 | 13.03368 | 3997 ft | 193 kts | 264° |
| 2026-04-21 07:58 | 48.01343 | 13.01395 | 3995 ft | 191 kts | 264° |
| 2026-04-21 07:58 | 48.01168 | 12.99430 | 3995 ft | 190 kts | 264° |
| 2026-04-21 07:58 | 48.00993 | 12.97476 | 3995 ft | 190 kts | 264° |
| 2026-04-21 07:58 | 48.00822 | 12.95569 | 4002 ft | 178 kts | 264° |
| 2026-04-21 07:59 | 48.00662 | 12.93790 | 4001 ft | 169 kts | 264° |
| 2026-04-21 07:59 | 48.00466 | 12.92084 | 3997 ft | 170 kts | 257° |
| 2026-04-21 07:59 | 47.99904 | 12.90490 | 3993 ft | 175 kts | 231° |
| 2026-04-21 07:59 | 47.98901 | 12.89494 | 3994 ft | 179 kts | 201° |
| 2026-04-21 08:00 | 47.97667 | 12.89271 | 3992 ft | 174 kts | 181° |
| 2026-04-21 08:00 | 47.96493 | 12.89530 | 4002 ft | 170 kts | 167° |
| 2026-04-21 08:00 | 47.95405 | 12.90133 | 4001 ft | 164 kts | 159° |
| 2026-04-21 08:00 | 47.94372 | 12.90825 | 3998 ft | 162 kts | 158° |
| 2026-04-21 08:01 | 47.93346 | 12.91486 | 3996 ft | 159 kts | 159° |
| 2026-04-21 08:01 | 47.92353 | 12.92111 | 3992 ft | 152 kts | 159° |
| 2026-04-21 08:01 | 47.91397 | 12.92729 | 3889 ft | 149 kts | 159° |
| 2026-04-21 08:02 | 47.89532 | 12.93929 | 3463 ft | 141 kts | 159° |
| 2026-04-21 08:02 | 47.88634 | 12.94498 | 3278 ft | 139 kts | 158° |
| 2026-04-21 08:02 | 47.87747 | 12.95062 | 3088 ft | 139 kts | 158° |
| 2026-04-21 08:02 | 47.86857 | 12.95627 | 2891 ft | 139 kts | 159° |
| 2026-04-21 08:03 | 47.85969 | 12.96191 | 2697 ft | 138 kts | 158° |
| 2026-04-21 08:03 | 47.85080 | 12.96755 | 2502 ft | 140 kts | 157° |
| 2026-04-21 08:03 | 47.84192 | 12.97318 | 2295 ft | 137 kts | 157° |
| 2026-04-21 08:03 | 47.83319 | 12.97871 | 2106 ft | 136 kts | 157° |
| 2026-04-21 08:04 | 47.82451 | 12.98425 | 1920 ft | 136 kts | 156° |
| 2026-04-21 08:04 | 47.81581 | 12.98979 | 1737 ft | 137 kts | 157° |
| 2026-04-21 08:04 | 47.80703 | 12.99529 | 1520 ft | 135 kts | 156° |
| 2026-04-21 08:04 | 47.79854 | 13.00078 | 1430 ft | 128 kts | 155° |
| 2026-04-21 08:05 | 47.79138 | 13.00526 | 1424 ft | 81 kts | 158° |
| 2026-04-21 08:05 | 47.78891 | 13.00676 | 1425 ft | 0 kts | 156° |
| 2026-04-21 08:05 | 47.78808 | 13.00728 | 1426 ft | 20 kts | 157° |
| 2026-04-21 08:05 | 47.78673 | 13.00812 | 1426 ft | 23 kts | 157° |
| 2026-04-21 08:06 | 47.78601 | 13.00848 | 1427 ft | 1 kts | 182° |
| 2026-04-21 08:06 | 47.78562 | 13.00810 | 1426 ft | 9 kts | 227° |
| 2026-04-21 08:06 | 47.78532 | 13.00722 | 1427 ft | 11 kts | 255° |
| 2026-04-21 08:06 | 47.78558 | 13.00627 | 1428 ft | 11 kts | 318° |
| 2026-04-21 08:07 | 47.78633 | 13.00569 | 1428 ft | 14 kts | 336° |
| 2026-04-21 08:07 | 47.78698 | 13.00528 | 1427 ft | 16 kts | 337° |
| 2026-04-21 08:07 | 47.78813 | 13.00455 | 1426 ft | 20 kts | 336° |
| 2026-04-21 08:07 | 47.78929 | 13.00361 | 1427 ft | 17 kts | 308° |
| 2026-04-21 08:08 | 47.78955 | 13.00206 | 1428 ft | 0 kts | 273° |
| 2026-04-21 08:08 | 47.78955 | 13.00207 | 1428 ft | 0 kts | 273° |
| 2026-04-21 08:09 | 47.78955 | 13.00190 | 1428 ft | 9 kts | 273° |
| 2026-04-21 08:09 | 47.78962 | 13.00120 | 1428 ft | 4 kts | 281° |
| 2026-04-21 08:09 | 47.78969 | 13.00066 | 1428 ft | 5 kts | 281° |
| 2026-04-21 08:10 | 47.78969 | 13.00063 | 1428 ft | 1 kts | 282° |
| 2026-04-21 08:10 | 47.78972 | 13.00046 | 1428 ft | 3 kts | 282° |
| 2026-04-21 08:10 | 47.78972 | 13.00045 | 1428 ft | 0 kts | 282° |